createdAt,value
2023-04-17T00:05:33.678Z,22.50
2023-04-17T00:15:36.139Z,22.48
2023-04-17T00:25:38.212Z,22.47
2023-04-17T00:35:40.371Z,22.44
2023-04-17T00:45:42.387Z,22.49
2023-04-17T00:55:46.057Z,22.48
2023-04-17T01:05:51.461Z,22.46
2023-04-17T01:15:53.923Z,22.48
2023-04-17T01:25:56.213Z,22.43
2023-04-17T01:35:58.199Z,22.42
2023-04-17T01:46:00.046Z,22.41
2023-04-17T01:56:02.588Z,22.48
2023-04-17T02:06:04.680Z,22.41
2023-04-17T02:16:07.614Z,22.45
2023-04-17T02:26:09.460Z,22.45
2023-04-17T02:36:11.882Z,22.45
2023-04-17T02:46:13.550Z,22.44
2023-04-17T02:56:16.186Z,22.39
2023-04-17T03:06:18.318Z,22.44
2023-04-17T03:16:20.540Z,22.36
2023-04-17T03:26:22.496Z,22.44
2023-04-17T03:36:24.545Z,22.40
2023-04-17T03:46:26.808Z,22.37
2023-04-17T03:56:28.847Z,22.38
2023-04-17T04:06:30.929Z,22.33
2023-04-17T04:16:33.187Z,22.34
2023-04-17T04:26:35.153Z,22.40
2023-04-17T04:36:50.229Z,22.38
2023-04-17T04:46:55.471Z,22.38
2023-04-17T04:56:57.831Z,22.36
2023-04-17T05:06:59.977Z,22.31
2023-04-17T05:17:02.740Z,22.34
2023-04-17T05:27:05.280Z,22.37
2023-04-17T05:37:07.402Z,22.39
2023-04-17T05:47:09.490Z,22.40
2023-04-17T05:57:11.668Z,22.42
2023-04-17T06:07:13.754Z,22.40
2023-04-17T06:17:15.994Z,22.41
2023-04-17T06:27:17.946Z,22.44
2023-04-17T06:37:20.177Z,22.48
2023-04-17T06:47:22.298Z,22.47
2023-04-17T06:57:24.373Z,22.48
2023-04-17T07:07:27.136Z,22.46
2023-04-17T07:17:29.627Z,22.44
2023-04-17T07:27:31.671Z,22.50
2023-04-17T07:37:34.843Z,22.55
2023-04-17T07:47:37.434Z,22.54
2023-04-17T07:57:43.575Z,22.52
2023-04-17T08:07:45.355Z,22.56
2023-04-17T08:17:47.754Z,22.52
2023-04-17T08:27:49.447Z,22.58
2023-04-17T08:37:51.498Z,22.58
2023-04-17T08:47:53.794Z,22.61
2023-04-17T08:57:58.717Z,22.67
2023-04-17T09:08:15.906Z,22.67
2023-04-17T09:18:31.307Z,22.68
2023-04-17T09:28:38.934Z,22.68
2023-04-17T09:38:40.764Z,22.67
2023-04-17T09:48:43.395Z,22.68
2023-04-17T09:58:45.415Z,22.63
2023-04-17T10:08:48.212Z,22.67
2023-04-17T10:19:33.421Z,22.66
2023-04-17T10:29:56.364Z,22.66
2023-04-17T10:40:02.347Z,22.65
2023-04-17T10:50:08.872Z,22.61
2023-04-17T11:00:14.398Z,22.60
2023-04-17T11:10:20.271Z,22.61
2023-04-17T11:20:24.528Z,22.59
2023-04-17T11:30:44.998Z,22.58
2023-04-17T11:40:54.899Z,22.61
2023-04-17T11:51:04.042Z,22.59
2023-04-17T12:01:06.948Z,22.55
2023-04-17T12:11:15.424Z,22.57
2023-04-17T12:21:18.197Z,22.60
2023-04-17T12:31:19.877Z,22.60
2023-04-17T12:41:21.667Z,22.60
2023-04-17T12:51:24.795Z,22.60
2023-04-17T13:01:27.499Z,22.61
2023-04-17T13:11:29.508Z,22.44
2023-04-17T13:21:31.969Z,22.59
2023-04-17T13:31:33.869Z,22.58
2023-04-17T13:41:36.808Z,22.55
2023-04-17T13:51:38.918Z,22.56
2023-04-17T14:01:41.472Z,22.52
2023-04-17T14:11:44.335Z,22.56
2023-04-17T14:21:46.331Z,22.57
2023-04-17T14:31:48.587Z,22.58
2023-04-17T14:41:50.497Z,22.60
2023-04-17T14:51:52.842Z,22.59
2023-04-17T15:01:55.179Z,22.58
2023-04-17T15:11:57.973Z,22.53
2023-04-17T15:21:59.963Z,22.57
2023-04-17T15:32:02.654Z,22.55
2023-04-17T15:42:08.595Z,22.56
2023-04-17T15:52:10.454Z,22.52
2023-04-17T16:02:15.848Z,22.57
2023-04-17T16:12:17.792Z,22.53
2023-04-17T16:22:19.885Z,22.51
2023-04-17T16:32:25.020Z,22.55
2023-04-17T16:42:26.619Z,22.58
2023-04-17T16:52:28.306Z,22.56
2023-04-17T17:02:30.670Z,22.57
2023-04-17T17:12:32.577Z,22.51
2023-04-17T17:22:34.594Z,22.55
2023-04-17T17:32:36.785Z,22.54
2023-04-17T17:42:38.515Z,22.57
2023-04-17T17:52:41.019Z,22.57
2023-04-17T18:02:43.259Z,22.59
2023-04-17T18:12:45.231Z,22.60
2023-04-17T18:22:47.515Z,22.61
2023-04-17T18:32:49.511Z,22.57
2023-04-17T18:42:51.168Z,22.58
2023-04-17T18:52:53.678Z,22.55
2023-04-17T19:02:55.987Z,22.60
2023-04-17T19:12:58.103Z,22.59
2023-04-17T19:23:01.066Z,22.62
2023-04-17T19:33:03.824Z,22.66
2023-04-17T19:43:06.055Z,22.68
2023-04-17T19:53:08.404Z,22.60
2023-04-17T20:03:10.681Z,22.67
2023-04-17T20:13:12.814Z,22.68
2023-04-17T20:23:14.834Z,22.62
2023-04-17T20:33:16.954Z,22.63
2023-04-17T20:43:20.231Z,22.57
2023-04-17T20:53:22.106Z,22.60
2023-04-17T21:03:23.894Z,22.57
2023-04-17T21:13:25.772Z,22.63
2023-04-17T21:23:27.488Z,22.66
2023-04-17T21:33:29.981Z,22.67
2023-04-17T21:43:31.721Z,22.61
2023-04-17T21:53:35.928Z,22.60
2023-04-17T22:03:37.951Z,22.63
2023-04-17T22:13:40.168Z,22.68
2023-04-17T22:23:42.144Z,22.71
2023-04-17T22:33:44.523Z,22.65
2023-04-17T22:43:49.929Z,22.70
2023-04-17T22:53:51.527Z,22.63
2023-04-17T23:03:53.648Z,22.64
2023-04-17T23:13:56.280Z,22.61
2023-04-17T23:23:57.948Z,22.60
2023-04-17T23:34:00.028Z,22.62
2023-04-17T23:44:01.912Z,22.64
2023-04-17T23:54:04.349Z,22.63
